Time;durP1;ratioP1;P1;durP2;ratioP2;P2;SDS_P1;SDS_P2;PMS_P1;PMS_P2;Temp;Humidity;BMP_temperature;BMP_pressure;BME280_temperature;BME280_humidity;BME280_pressure;Samples;Min_cycle;Max_cycle;Signal;HPM_P1;HPM_P2
2021/10/27 00:00:49;;;;;;;16.13;12.10;;;;;;;6.13;84.00;100531.81;5116022;28;20478;-71
2021/10/27 00:03:15;;;;;;;14.67;10.90;;;;;;;6.19;84.30;100533.91;5116627;28;20656;-70
2021/10/27 00:05:40;;;;;;;13.57;10.77;;;;;;;6.13;83.45;100521.25;5115956;28;20028;-68
2021/10/27 00:08:07;;;;;;;17.20;13.27;;;;;;;6.27;84.01;100541.13;5116141;28;20056;-70
2021/10/27 00:10:34;;;;;;;15.43;12.07;;;;;;;6.29;83.54;100539.19;5122747;28;20039;-68
2021/10/27 00:12:59;;;;;;;17.73;13.23;;;;;;;6.22;83.96;100528.34;5121816;28;20032;-68
2021/10/27 00:15:26;;;;;;;15.83;12.47;;;;;;;6.28;84.08;100538.34;5102156;28;20032;-70
2021/10/27 00:17:52;;;;;;;18.67;13.90;;;;;;;6.29;83.72;100539.19;5116094;28;20062;-70
2021/10/27 00:20:17;;;;;;;17.37;13.60;;;;;;;6.24;84.13;100526.38;5115902;28;20070;-74
2021/10/27 00:22:43;;;;;;;19.03;13.33;;;;;;;6.20;83.69;100519.72;5097461;28;20072;-69
2021/10/27 00:25:09;;;;;;;18.30;13.70;;;;;;;6.22;83.57;100509.81;5115866;28;20031;-69
2021/10/27 00:27:35;;;;;;;20.53;14.27;;;;;;;6.26;83.56;100521.78;5115499;28;20026;-70
2021/10/27 00:30:01;;;;;;;19.43;13.30;;;;;;;6.25;84.24;100511.34;5121127;28;20024;-69
2021/10/27 00:32:28;;;;;;;17.17;13.17;;;;;;;6.30;84.04;100520.53;5102683;28;20023;-70
2021/10/27 00:34:54;;;;;;;18.43;15.17;;;;;;;6.29;83.71;100518.84;5121765;28;20062;-71
2021/10/27 00:37:20;;;;;;;20.90;13.93;;;;;;;6.34;84.51;100521.91;5116249;28;20023;-68
2021/10/27 00:39:47;;;;;;;22.53;16.17;;;;;;;6.35;83.83;100515.63;5115676;28;20043;-69
2021/10/27 00:42:13;;;;;;;18.53;15.03;;;;;;;6.36;84.15;100504.13;5115781;28;20073;-75
2021/10/27 00:44:41;;;;;;;18.87;13.87;;;;;;;6.42;83.53;100511.47;5115099;28;20035;-72
2021/10/27 00:47:13;;;;;;;19.70;15.55;;;;;;;6.41;83.58;100506.31;5115235;28;20028;-70
2021/10/27 00:49:40;;;;;;;18.83;15.07;;;;;;;6.39;83.53;100501.19;5115365;28;20031;-70
2021/10/27 00:52:10;;;;;;;20.23;14.63;;;;;;;6.31;83.62;100493.09;5096900;28;20016;-71
2021/10/27 00:54:37;;;;;;;19.23;15.07;;;;;;;6.28;84.17;100492.56;5114969;28;20111;-68
2021/10/27 00:57:03;;;;;;;21.17;16.50;;;;;;;6.25;83.76;100488.38;5096959;28;20032;-68
2021/10/27 00:59:29;;;;;;;21.03;16.10;;;;;;;6.30;84.18;100494.06;5114896;28;20023;-67
2021/10/27 01:01:56;;;;;;;22.63;15.50;;;;;;;6.35;83.83;100480.41;5096719;28;20027;-66
2021/10/27 01:04:23;;;;;;;21.77;15.67;;;;;;;6.33;84.08;100472.63;5114899;28;20032;-66
2021/10/27 01:06:49;;;;;;;23.23;15.77;;;;;;;6.36;84.03;100472.38;5114858;28;20431;-65
2021/10/27 01:09:19;;;;;;;22.13;15.47;;;;;;;6.35;84.42;100469.84;5114361;28;20050;-66
2021/10/27 01:11:45;;;;;;;22.67;17.80;;;;;;;6.32;84.47;100465.69;5114644;28;20043;-65
2021/10/27 01:14:11;;;;;;;20.90;15.10;;;;;;;6.35;85.18;100469.84;5114531;28;20118;-65
2021/10/27 01:16:38;;;;;;;21.03;16.70;;;;;;;6.27;84.04;100457.34;5114602;28;20057;-67
2021/10/27 01:19:04;;;;;;;23.30;17.63;;;;;;;6.28;85.00;100469.59;5114858;28;20027;-67
2021/10/27 01:21:30;;;;;;;22.37;15.57;;;;;;;6.30;85.17;100467.63;5114575;28;20078;-66
2021/10/27 01:24:01;;;;;;;22.50;17.73;;;;;;;6.33;85.18;100466.50;5114318;28;20051;-66
2021/10/27 01:26:27;;;;;;;20.47;16.33;;;;;;;6.25;84.77;100448.72;5096128;28;20106;-67
2021/10/27 01:28:53;;;;;;;21.13;15.83;;;;;;;6.31;84.63;100456.06;5095876;28;20040;-67
2021/10/27 01:31:19;;;;;;;25.73;17.10;;;;;;;6.34;84.79;100453.13;5114066;28;20028;-71
2021/10/27 01:33:45;;;;;;;23.60;16.67;;;;;;;6.35;84.48;100454.81;5096142;28;20100;-69
2021/10/27 01:36:16;;;;;;;21.10;15.43;;;;;;;6.44;84.49;100448.69;5095686;28;20482;-69
2021/10/27 01:38:42;;;;;;;24.10;15.70;;;;;;;6.48;84.68;100455.34;5114958;28;20168;-67
2021/10/27 01:41:07;;;;;;;21.60;16.67;;;;;;;6.43;84.56;100441.72;5095737;28;20495;-68
2021/10/27 01:43:50;;;;;;;25.40;16.40;;;;;;;6.46;84.01;100437.94;5114215;28;20459;-69
2021/10/27 01:46:16;;;;;;;21.83;16.70;;;;;;;6.42;84.09;100439.22;5079569;28;20034;-67
2021/10/27 01:48:42;;;;;;;23.77;16.50;;;;;;;6.35;84.68;100428.34;5113954;28;20126;-70
2021/10/27 01:51:07;;;;;;;26.93;18.33;;;;;;;6.42;84.23;100424.19;5114065;28;20038;-69
2021/10/27 01:53:33;;;;;;;23.33;16.83;;;;;;;6.46;84.73;100430.84;5095567;28;20043;-68
2021/10/27 01:55:58;;;;;;;24.07;17.70;;;;;;;6.50;84.63;100431.38;5078510;28;20069;-70
2021/10/27 01:58:24;;;;;;;23.53;17.53;;;;;;;6.51;84.10;100430.41;5113577;28;20027;-67
2021/10/27 02:00:49;;;;;;;28.17;17.33;;;;;;;6.52;84.09;100424.97;5113696;28;20476;-69
2021/10/27 02:03:14;;;;;;;22.73;17.97;;;;;;;6.56;84.27;100440.56;5113479;28;20446;-70
2021/10/27 02:05:42;;;;;;;22.10;16.27;;;;;;;6.49;84.72;100424.44;5113638;28;20020;-69
2021/10/27 02:08:09;;;;;;;26.23;16.13;;;;;;;6.56;84.62;100430.81;5113109;28;20096;-65
2021/10/27 02:10:34;;;;;;;22.70;16.10;;;;;;;6.49;84.31;100408.56;5113383;28;20038;-65
2021/10/27 02:13:00;;;;;;;22.23;15.43;;;;;;;6.48;84.33;100423.59;5113624;28;20031;-69
2021/10/27 02:15:25;;;;;;;24.43;15.13;;;;;;;6.43;85.11;100419.72;5113817;28;20111;-67
2021/10/27 02:17:56;;;;;;;25.17;16.33;;;;;;;6.38;84.69;100422.81;5112636;28;20062;-69
2021/10/27 02:20:22;;;;;;;23.87;14.70;;;;;;;6.42;84.88;100423.34;5113266;28;20024;-66
2021/10/27 02:22:47;;;;;;;21.07;14.87;;;;;;;6.36;85.75;100406.25;5095485;28;20036;-68
2021/10/27 02:25:13;;;;;;;22.67;13.70;;;;;;;6.42;85.89;100412.78;5112926;28;20066;-68
2021/10/27 02:27:38;;;;;;;19.67;14.57;;;;;;;6.29;85.39;100407.78;5113678;28;20055;-65
2021/10/27 02:30:05;;;;;;;24.07;14.63;;;;;;;6.40;85.54;100420.03;5094952;28;20050;-65
2021/10/27 02:32:30;;;;;;;20.13;12.97;;;;;;;6.29;85.36;100397.19;5113190;28;20063;-69
2021/10/27 02:34:55;;;;;;;18.57;13.83;;;;;;;6.33;85.71;100409.16;5113104;28;20066;-67
2021/10/27 02:37:21;;;;;;;15.67;13.33;;;;;;;6.32;86.17;100404.84;5113431;28;20024;-67
2021/10/27 02:39:46;;;;;;;16.80;12.23;;;;;;;6.27;85.77;100401.81;5112850;28;20110;-65
2021/10/27 02:42:12;;;;;;;16.70;12.07;;;;;;;6.35;86.62;100401.06;5112947;28;20034;-69
2021/10/27 02:44:37;;;;;;;16.83;11.00;;;;;;;6.34;86.54;100404.69;5112898;28;20355;-66
2021/10/27 02:47:04;;;;;;;16.83;11.13;;;;;;;6.34;85.75;100394.94;5094589;28;20114;-71
2021/10/27 02:49:30;;;;;;;18.17;11.20;;;;;;;6.32;86.18;100386.34;5112871;28;20437;-69
2021/10/27 02:51:56;;;;;;;13.00;11.47;;;;;;;6.26;85.84;100381.63;5112775;28;20068;-71
2021/10/27 02:54:21;;;;;;;12.87;10.07;;;;;;;6.29;86.09;100397.19;5112455;28;20023;-70
2021/10/27 02:56:47;;;;;;;15.00;10.37;;;;;;;6.31;86.45;100400.53;5112930;28;20393;-68
2021/10/27 02:59:12;;;;;;;11.80;9.83;;;;;;;6.30;86.51;100398.03;5112907;28;20520;-69
2021/10/27 03:01:38;;;;;;;16.03;10.00;;;;;;;6.25;86.57;100379.97;5094311;28;20030;-69
2021/10/27 03:04:03;;;;;;;13.60;9.77;;;;;;;6.29;87.00;100391.06;5094489;28;20080;-68
2021/10/27 03:06:29;;;;;;;13.60;9.33;;;;;;;6.29;86.73;100399.00;5112582;28;20111;-70
2021/10/27 03:08:55;;;;;;;9.43;8.17;;;;;;;6.31;86.67;100397.06;5112061;28;20081;-71
2021/10/27 03:11:21;;;;;;;12.13;9.77;;;;;;;6.24;86.26;100370.38;5112788;28;20097;-69
2021/10/27 03:13:46;;;;;;;12.03;8.70;;;;;;;6.30;86.56;100384.81;5112596;28;20027;-71
2021/10/27 03:16:12;;;;;;;11.30;7.57;;;;;;;6.27;86.79;100378.00;5112457;28;20032;-68
2021/10/27 03:18:37;;;;;;;11.17;8.20;;;;;;;6.29;86.92;100375.22;5112555;28;20040;-70
2021/10/27 03:21:03;;;;;;;11.33;8.07;;;;;;;6.16;86.38;100355.22;5094013;28;20035;-68
2021/10/27 03:23:28;;;;;;;11.33;8.97;;;;;;;6.28;86.79;100377.03;5112278;28;20063;-68
2021/10/27 03:25:54;;;;;;;9.43;7.53;;;;;;;6.29;87.06;100375.22;5094328;28;20035;-69
2021/10/27 03:28:19;;;;;;;7.73;6.77;;;;;;;6.33;86.89;100382.72;5094697;28;20064;-69
2021/10/27 03:30:45;;;;;;;9.67;7.07;;;;;;;6.34;86.55;100373.78;5115689;28;20430;-68
2021/10/27 03:33:10;;;;;;;8.30;6.13;;;;;;;6.30;87.28;100375.06;5116676;28;20031;-69
2021/10/27 03:35:36;;;;;;;9.13;6.47;;;;;;;6.32;87.56;100367.81;5098391;28;20030;-67
2021/10/27 03:38:01;;;;;;;8.37;7.10;;;;;;;6.39;86.90;100376.88;5116492;28;20039;-69
2021/10/27 03:40:27;;;;;;;7.07;6.37;;;;;;;6.36;87.23;100374.50;5098204;28;20355;-68
2021/10/27 03:42:54;;;;;;;7.90;6.70;;;;;;;6.37;86.65;100383.28;5116429;28;20107;-67
2021/10/27 03:45:19;;;;;;;8.13;5.83;;;;;;;6.37;86.22;100375.34;5116503;28;20020;-65
2021/10/27 03:47:45;;;;;;;8.83;5.80;;;;;;;6.38;86.93;100380.50;5097838;28;20054;-67
2021/10/27 03:50:14;;;;;;;7.50;5.27;;;;;;;6.44;86.94;100377.25;5097899;28;20035;-69
2021/10/27 03:52:40;;;;;;;;;;;;;;;6.47;87.28;100379.59;5116326;28;20051;-68
2021/10/27 03:55:06;;;;;;;5.63;5.13;;;;;;;6.47;86.95;100382.25;5115963;28;19908;-67
2021/10/27 03:57:32;;;;;;;5.00;4.60;;;;;;;6.47;86.31;100384.91;5097682;28;20426;-65
2021/10/27 03:59:59;;;;;;;6.47;5.50;;;;;;;6.45;86.91;100373.63;5097799;28;20111;-68
2021/10/27 04:02:25;;;;;;;5.33;4.83;;;;;;;6.49;86.71;100382.94;5116456;28;20477;-69
2021/10/27 04:04:50;;;;;;;5.80;5.30;;;;;;;6.53;87.25;100381.66;5080538;28;20024;-69
2021/10/27 04:07:16;;;;;;;5.30;4.80;;;;;;;6.53;87.82;100378.19;5115272;28;20020;-71
2021/10/27 04:09:42;;;;;;;5.63;4.47;;;;;;;6.45;86.96;100359.56;5114473;28;20047;-70
2021/10/27 04:12:09;;;;;;;6.10;5.50;;;;;;;6.52;87.46;100372.06;5114309;28;20412;-69
2021/10/27 04:14:35;;;;;;;5.10;4.53;;;;;;;6.55;87.25;100370.09;5114801;28;20066;-68
2021/10/27 04:17:00;;;;;;;5.77;5.10;;;;;;;6.61;86.79;100369.50;5114038;28;20479;-72
2021/10/27 04:19:26;;;;;;;5.60;4.90;;;;;;;6.50;86.85;100352.84;5115006;28;20207;-68
2021/10/27 04:21:52;;;;;;;5.53;4.93;;;;;;;6.60;86.61;100368.69;5118918;28;20050;-69
2021/10/27 04:24:17;;;;;;;5.73;5.13;;;;;;;6.70;86.53;100373.94;5119931;28;20020;-68
2021/10/27 04:26:43;;;;;;;6.00;5.33;;;;;;;6.70;86.54;100364.19;5115746;28;20020;-68
2021/10/27 04:29:09;;;;;;;7.73;5.40;;;;;;;6.78;86.83;100360.81;5115900;28;20022;-67
2021/10/27 04:31:34;;;;;;;5.37;4.70;;;;;;;6.77;85.93;100359.97;5115590;28;20088;-69
2021/10/27 04:34:00;;;;;;;6.23;4.80;;;;;;;6.78;86.79;100372.22;5115636;28;20031;-68
2021/10/27 04:36:26;;;;;;;6.33;5.73;;;;;;;6.81;86.34;100371.09;5096971;28;20382;-70
2021/10/27 04:38:52;;;;;;;6.53;5.87;;;;;;;6.87;86.54;100369.66;5116309;28;20141;-71
2021/10/27 04:41:17;;;;;;;6.60;4.73;;;;;;;6.86;86.48;100357.41;5117561;28;20490;-71
2021/10/27 04:43:42;;;;;;;5.80;4.90;;;;;;;6.89;87.01;100367.69;5117754;28;20133;-70
2021/10/27 04:46:08;;;;;;;7.10;5.17;;;;;;;6.93;86.60;100364.59;5100084;28;20027;-70
2021/10/27 04:48:33;;;;;;;6.43;5.50;;;;;;;6.97;86.98;100370.44;5115180;28;20032;-71
2021/10/27 04:50:59;;;;;;;6.03;5.00;;;;;;;6.99;87.43;100365.84;5096731;28;20378;-67
2021/10/27 04:53:25;;;;;;;8.57;5.40;;;;;;;6.86;87.25;100344.16;5115287;28;20455;-69
2021/10/27 04:55:54;;;;;;;6.83;5.60;;;;;;;6.99;87.78;100366.66;5115036;28;20038;-64
2021/10/27 04:58:21;;;;;;;6.72;5.28;;;;;;;7.04;87.29;100367.06;5114690;28;20055;-63
2021/10/27 05:00:47;;;;;;;6.63;5.93;;;;;;;7.03;87.32;100365.38;5114806;28;20035;-65
2021/10/27 05:03:12;;;;;;;5.67;5.10;;;;;;;7.09;87.75;100372.72;5114480;28;20106;-67
2021/10/27 05:05:53;;;;;;;12.40;7.77;;;;;;;7.07;87.40;100366.75;5114073;28;20031;-67
2021/10/27 05:08:24;;;;;;;6.43;5.13;;;;;;;7.13;87.23;100370.59;5114198;28;20077;-65
2021/10/27 05:10:52;;;;;;;9.77;5.27;;;;;;;7.18;87.44;100378.09;5096413;28;20089;-66
2021/10/27 05:13:19;;;;;;;6.43;5.68;;;;;;;7.18;87.22;100376.28;5114789;28;20587;-73
2021/10/27 05:15:46;;;;;;;7.07;6.37;;;;;;;7.19;86.73;100374.47;5096169;28;20032;-69
2021/10/27 05:18:14;;;;;;;7.80;5.33;;;;;;;7.19;87.14;100377.94;5114502;28;20038;-71
2021/10/27 05:20:39;;;;;;;10.13;6.00;;;;;;;7.23;87.41;100381.13;5116587;28;20040;-66
2021/10/27 05:23:05;;;;;;;8.57;5.27;;;;;;;7.22;86.87;100382.09;5115003;28;20026;-68
2021/10/27 05:25:31;;;;;;;6.77;6.07;;;;;;;7.13;86.57;100366.16;5114890;28;20032;-73
2021/10/27 05:27:56;;;;;;;7.63;6.13;;;;;;;7.22;86.83;100388.25;5114087;28;20708;-71
2021/10/27 05:30:22;;;;;;;10.57;5.80;;;;;;;7.15;86.78;100374.78;5114046;28;20039;-69
2021/10/27 05:32:47;;;;;;;10.33;5.00;;;;;;;7.19;86.69;100385.06;5113417;28;20463;-70
2021/10/27 05:35:13;;;;;;;7.97;5.30;;;;;;;7.22;86.61;100393.53;5095676;28;20035;-64
2021/10/27 05:37:38;;;;;;;8.13;6.43;;;;;;;7.22;86.47;100390.88;5113497;28;20459;-65
2021/10/27 05:40:04;;;;;;;9.17;6.40;;;;;;;7.25;86.56;100387.97;5112577;28;20039;-63
2021/10/27 05:42:31;;;;;;;10.23;6.43;;;;;;;7.22;86.28;100390.06;5113296;28;20035;-69
2021/10/27 05:44:59;;;;;;;8.63;6.50;;;;;;;7.26;86.22;100392.28;5112782;28;20112;-64
2021/10/27 05:47:26;;;;;;;9.73;7.47;;;;;;;7.27;86.81;100387.81;5112737;28;20036;-67
2021/10/27 05:50:18;;;;;;;14.13;6.63;;;;;;;7.27;85.69;100399.25;5112906;28;20059;-62
2021/10/27 05:55:28;;;;;;;11.63;7.13;;;;;;;7.33;86.18;100403.09;5113605;28;20463;-63
2021/10/27 05:57:55;;;;;;;17.70;7.10;;;;;;;7.36;85.70;100408.09;5113418;28;20114;-65
2021/10/27 06:00:22;;;;;;;9.27;6.53;;;;;;;7.40;85.70;100409.47;5113400;28;20470;-62
2021/10/27 06:02:48;;;;;;;9.50;5.50;;;;;;;7.39;85.27;100402.50;5094994;28;20137;-63
2021/10/27 06:05:13;;;;;;;10.33;6.93;;;;;;;7.39;85.49;100402.50;5113321;28;20059;-64
2021/10/27 06:07:39;;;;;;;10.47;5.60;;;;;;;7.43;85.04;100406.50;5112946;28;20024;-63
2021/10/27 06:10:05;;;;;;;11.23;6.80;;;;;;;7.48;85.67;100422.78;5113444;28;20028;-63
2021/10/27 06:12:31;;;;;;;11.03;7.97;;;;;;;7.46;85.06;100417.63;5113461;28;20034;-65
2021/10/27 06:14:56;;;;;;;14.53;7.50;;;;;;;7.46;85.67;100419.44;5113527;28;20023;-65
2021/10/27 06:17:22;;;;;;;11.00;7.07;;;;;;;7.47;85.30;100414.00;5113841;28;20023;-64
2021/10/27 06:19:50;;;;;;;11.47;7.10;;;;;;;7.53;85.86;100415.22;5112896;28;20370;-65
2021/10/27 06:22:17;;;;;;;;;;;;;;;7.63;85.04;100423.94;5113608;28;20204;-63
2021/10/27 06:24:42;;;;;;;11.03;6.03;;;;;;;7.61;85.34;100427.72;5113392;28;20391;-64
2021/10/27 06:27:08;;;;;;;12.00;6.87;;;;;;;7.62;85.57;100424.09;5113126;28;20430;-64
2021/10/27 06:29:45;;;;;;;18.27;6.60;;;;;;;7.67;84.13;100422.63;5112848;28;20035;-65
2021/10/27 06:34:51;;;;;;;11.10;5.80;;;;;;;7.64;84.33;100428.25;5113072;28;20058;-66
2021/10/27 06:37:36;;;;;;;11.83;6.13;;;;;;;7.67;84.44;100422.63;5112820;28;20068;-61
2021/10/27 06:48:17;;;;;;;11.57;6.27;;;;;;;7.74;83.68;100444.88;5112865;28;20035;-63
2021/10/27 06:50:44;;;;;;;;;;;;;;;7.78;84.08;100437.47;5112818;28;20031;-63
2021/10/27 06:53:10;;;;;;;18.27;7.57;;;;;;;7.72;83.44;100441.56;5112606;28;20358;-62
2021/10/27 06:55:38;;;;;;;9.70;6.93;;;;;;;7.63;83.74;100423.09;5112564;28;20467;-62
2021/10/27 06:58:04;;;;;;;13.80;6.28;;;;;;;7.72;83.78;100441.56;5112333;28;20030;-59
2021/10/27 07:00:42;;;;;;;9.87;5.97;;;;;;;7.81;83.48;100444.31;5112836;28;20138;-63
2021/10/27 07:06:39;;;;;;;11.07;6.20;;;;;;;7.84;83.35;100466.03;5112614;28;20434;-59
2021/10/27 07:16:58;;;;;;;9.17;6.03;;;;;;;8.08;82.07;100431.75;5111814;28;20045;-62
2021/10/27 07:19:24;;;;;;;11.87;6.03;;;;;;;8.11;81.95;100435.94;5110998;28;20028;-61
2021/10/27 07:21:49;;;;;;;18.73;6.30;;;;;;;8.02;82.49;100439.50;5112439;28;20031;-61
2021/10/27 07:24:16;;;;;;;13.03;5.87;;;;;;;7.95;82.45;100435.78;5112167;28;20164;-61
2021/10/27 07:26:45;;;;;;;13.33;6.33;;;;;;;8.00;82.93;100446.78;5111577;28;20031;-65
2021/10/27 07:29:12;;;;;;;9.97;6.23;;;;;;;8.10;82.51;100447.53;5110777;28;20043;-64
2021/10/27 07:31:37;;;;;;;10.53;5.57;;;;;;;8.04;82.40;100440.16;5110680;28;20024;-64
2021/10/27 07:34:09;;;;;;;10.57;5.93;;;;;;;8.15;82.59;100453.19;5111128;28;20152;-62
2021/10/27 07:42:04;;;;;;;10.63;5.50;;;;;;;8.24;82.10;100478.78;5112184;28;20115;-64
2021/10/27 07:44:29;;;;;;;8.00;5.67;;;;;;;8.20;81.64;100481.91;5112114;28;20446;-61
2021/10/27 07:46:55;;;;;;;11.53;5.27;;;;;;;8.12;81.93;100472.09;5112028;28;20024;-69
2021/10/27 07:49:21;;;;;;;12.10;4.90;;;;;;;8.21;81.84;100486.22;5111928;28;20043;-63
2021/10/27 07:51:46;;;;;;;11.77;6.13;;;;;;;8.21;82.40;100476.44;5112044;28;20066;-64
2021/10/27 07:54:13;;;;;;;8.47;5.17;;;;;;;8.23;81.98;100474.47;5111822;28;20464;-66
2021/10/27 07:56:40;;;;;;;11.73;5.10;;;;;;;8.23;82.72;100487.75;5111649;28;20023;-68
2021/10/27 07:59:06;;;;;;;9.40;5.40;;;;;;;8.23;82.51;100487.75;5112376;28;20122;-62
2021/10/27 08:01:31;;;;;;;12.57;5.10;;;;;;;8.13;82.61;100470.25;5111968;28;20071;-65
2021/10/27 08:04:00;;;;;;;12.90;5.90;;;;;;;8.27;82.73;100475.00;5112026;28;20488;-62
2021/10/27 08:06:26;;;;;;;9.05;5.22;;;;;;;8.31;81.83;100479.84;5112173;28;20016;-65
2021/10/27 08:08:52;;;;;;;8.93;5.13;;;;;;;8.17;82.46;100461.84;5111475;28;20044;-66
2021/10/27 08:11:18;;;;;;;13.60;6.57;;;;;;;8.31;82.15;100489.63;5111942;28;20038;-70
2021/10/27 08:13:44;;;;;;;9.33;5.50;;;;;;;8.36;82.48;100493.50;5093636;28;20027;-68
2021/10/27 08:16:11;;;;;;;18.17;5.57;;;;;;;8.38;81.56;100480.94;5113551;28;20038;-66
2021/10/27 08:18:38;;;;;;;11.40;5.55;;;;;;;8.43;81.20;100482.28;5115353;28;20039;-62
2021/10/27 08:21:04;;;;;;;13.10;4.60;;;;;;;8.46;81.66;100481.97;5115209;28;20471;-66
2021/10/27 08:23:32;;;;;;;13.97;4.90;;;;;;;8.44;81.54;100494.56;5115368;28;20023;-62
2021/10/27 08:26:02;;;;;;;23.20;6.43;;;;;;;8.38;81.20;100491.56;5115992;28;20042;-64
2021/10/27 08:28:42;;;;;;;16.20;4.50;;;;;;;8.26;81.67;100486.59;5115489;28;20493;-65
2021/10/27 08:31:26;;;;;;;10.13;4.77;;;;;;;8.28;81.69;100496.06;5115530;28;20028;-66
2021/10/27 08:36:19;;;;;;;9.47;4.33;;;;;;;8.31;80.72;100482.50;5114751;28;20035;-63
2021/10/27 08:38:45;;;;;;;6.80;3.70;;;;;;;8.32;81.38;100480.66;5115412;28;20031;-69
2021/10/27 08:41:13;;;;;;;7.20;4.27;;;;;;;8.25;81.30;100490.25;5096968;28;20042;-69
2021/10/27 08:43:39;;;;;;;8.73;4.78;;;;;;;8.28;81.17;100504.03;5115216;28;20039;-68
2021/10/27 08:46:08;;;;;;;6.40;3.37;;;;;;;8.29;81.30;100503.03;5114759;28;20039;-68
2021/10/27 08:48:39;;;;;;;14.47;5.27;;;;;;;8.36;80.63;100512.06;5114061;28;20027;-70
2021/10/27 08:51:06;;;;;;;9.30;4.30;;;;;;;8.34;80.23;100515.88;5114673;28;20076;-69
2021/10/27 08:53:34;;;;;;;9.70;4.40;;;;;;;8.33;80.89;100511.53;5114527;28;20055;-68
2021/10/27 08:56:04;;;;;;;15.20;5.25;;;;;;;8.40;80.31;100519.75;5097238;28;20027;-71
2021/10/27 08:58:47;;;;;;;14.80;5.43;;;;;;;8.53;80.24;100530.78;5079740;28;20034;-68
2021/10/27 09:01:22;;;;;;;18.67;5.67;;;;;;;8.48;79.85;100523.28;5113110;28;20035;-67
2021/10/27 10:06:03;;;;;;;10.90;4.57;;;;;;;8.61;79.85;100591.88;5113293;28;20024;-62
2021/10/27 10:08:31;;;;;;;10.47;3.30;;;;;;;8.69;79.34;100589.31;5113291;28;20112;-62
2021/10/27 10:10:57;;;;;;;8.15;3.70;;;;;;;8.53;78.81;100558.16;5113432;28;20505;-66
2021/10/27 10:13:24;;;;;;;8.97;3.27;;;;;;;8.73;78.86;100584.53;5113486;28;20035;-63
2021/10/27 10:15:50;;;;;;;12.40;4.00;;;;;;;8.77;78.47;100581.41;5113021;28;20024;-64
2021/10/27 10:18:21;;;;;;;12.20;3.77;;;;;;;8.67;78.18;100585.94;5113244;28;20466;-65
2021/10/27 10:20:54;;;;;;;9.63;3.20;;;;;;;8.68;78.18;100591.13;5112995;28;20028;-65
2021/10/27 10:23:22;;;;;;;9.33;3.20;;;;;;;8.70;78.43;100585.69;5110588;28;20031;-66
2021/10/27 10:26:02;;;;;;;9.35;3.72;;;;;;;8.74;78.30;100594.16;5113253;28;20031;-64
2021/10/27 10:28:36;;;;;;;8.40;3.00;;;;;;;8.77;77.23;100599.16;5112741;28;20077;-66
2021/10/27 10:31:02;;;;;;;8.17;3.80;;;;;;;8.81;77.87;100595.19;5113220;28;20023;-64
2021/10/27 10:33:44;;;;;;;7.93;2.83;;;;;;;8.81;77.43;100576.59;5094963;28;20055;-66
2021/10/27 10:36:32;;;;;;;10.27;3.67;;;;;;;8.96;76.70;100596.28;5113052;28;20027;-66
2021/10/27 11:40:46;;;;;;;9.87;2.63;;;;;;;8.45;74.40;100620.97;5112616;28;20023;-74
2021/10/27 11:48:12;;;;;;;6.27;3.43;;;;;;;8.29;75.27;100603.84;5111705;28;20046;-63
2021/10/27 11:50:41;;;;;;;5.77;2.93;;;;;;;8.28;75.35;100607.50;5113195;28;20519;-62
2021/10/27 11:53:16;;;;;;;;;;;;;;;8.42;75.67;100623.94;5116328;28;20081;-67
2021/10/27 11:55:42;;;;;;;6.20;2.60;;;;;;;8.38;75.51;100618.91;5116035;28;19914;-60
2021/10/27 11:58:09;;;;;;;8.57;3.23;;;;;;;8.33;75.28;100609.69;5115930;28;20110;-71
2021/10/27 12:00:44;;;;;;;7.83;3.00;;;;;;;8.29;75.77;100618.94;5116154;28;20027;-69
2021/10/27 12:03:14;;;;;;;8.20;3.17;;;;;;;8.20;75.26;100610.09;5097889;28;20023;-71
2021/10/27 12:05:53;;;;;;;7.50;3.60;;;;;;;8.27;74.99;100611.13;5097261;28;20046;-64
2021/10/27 12:19:01;;;;;;;8.70;3.40;;;;;;;8.29;74.95;100617.13;5115191;28;20023;-69
2021/10/27 12:21:28;;;;;;;7.60;3.87;;;;;;;8.24;74.94;100614.09;5115099;28;20038;-64
2021/10/27 12:23:55;;;;;;;8.60;4.37;;;;;;;8.11;74.91;100610.16;5115352;28;20154;-71
2021/10/27 12:26:23;;;;;;;10.30;3.20;;;;;;;8.22;75.28;100616.06;5115819;28;20034;-66
2021/10/27 12:29:09;;;;;;;7.72;3.72;;;;;;;8.27;75.36;100627.06;5115846;28;20027;-67
2021/10/27 12:31:39;;;;;;;11.07;3.80;;;;;;;8.05;75.31;100593.00;5115101;28;20351;-67
2021/10/27 12:34:26;;;;;;;11.30;4.43;;;;;;;8.24;75.69;100616.75;5115160;28;20042;-70
2021/10/27 12:36:53;;;;;;;8.10;3.17;;;;;;;8.19;75.79;100603.09;5115396;28;20066;-68
2021/10/27 12:39:33;;;;;;;8.43;4.10;;;;;;;8.22;75.99;100618.72;5114240;28;20590;-65
2021/10/27 12:42:09;;;;;;;7.47;3.77;;;;;;;8.26;75.79;100622.72;5113738;28;20031;-66
2021/10/27 12:44:48;;;;;;;5.60;3.37;;;;;;;8.10;76.56;100598.72;5113643;28;20055;-67
2021/10/27 12:47:21;;;;;;;5.87;3.83;;;;;;;8.12;76.00;100611.84;5113501;28;20114;-66
2021/10/27 12:49:48;;;;;;;10.33;3.93;;;;;;;8.15;75.94;100616.81;5113536;28;20027;-67
2021/10/27 12:52:27;;;;;;;9.83;4.83;;;;;;;8.14;77.02;100625.78;5095186;28;20027;-62
2021/10/27 12:55:15;;;;;;;8.50;4.53;;;;;;;8.12;76.60;100612.66;5109873;28;20493;-64
2021/10/27 12:57:48;;;;;;;9.00;4.00;;;;;;;8.08;75.88;100621.88;5114680;28;20054;-67
2021/10/27 13:00:31;;;;;;;5.30;3.90;;;;;;;7.97;76.39;100600.88;5096671;28;20264;-65
2021/10/27 13:05:51;;;;;;;9.87;4.03;;;;;;;7.88;76.70;100604.44;5096083;28;20030;-66
2021/10/27 13:32:23;;;;;;;9.50;4.07;;;;;;;7.92;78.20;100590.72;5114074;28;20041;-70
2021/10/27 13:34:49;;;;;;;6.70;3.53;;;;;;;8.00;78.34;100589.97;5095544;28;20031;-68
2021/10/27 13:37:17;;;;;;;7.30;3.73;;;;;;;8.00;78.26;100597.94;5113780;28;20153;-65
2021/10/27 13:39:43;;;;;;;9.63;4.23;;;;;;;8.02;78.42;100595.97;5113702;28;20028;-68
2021/10/27 13:45:11;;;;;;;10.83;3.47;;;;;;;8.02;78.33;100591.50;5089401;28;20059;-67
2021/10/27 14:06:54;;;;;;;7.13;3.37;;;;;;;7.88;80.17;100588.53;5113350;28;20012;-70
2021/10/27 14:23:00;;;;;;;9.53;4.27;;;;;;;7.91;80.49;100591.72;5093589;28;20032;-70
2021/10/27 15:30:42;;;;;;;4.83;2.33;;;;;;;8.18;75.41;100531.63;5116900;28;20534;-66
2021/10/27 15:43:51;;;;;;;6.67;3.10;;;;;;;8.18;74.58;100524.50;5116098;28;20077;-65
2021/10/27 15:51:50;;;;;;;5.30;2.30;;;;;;;8.23;74.20;100527.53;5116020;28;20027;-67
2021/10/27 15:54:15;;;;;;;5.03;2.77;;;;;;;8.16;74.37;100515.88;5116377;28;20072;-65
2021/10/27 15:56:42;;;;;;;4.77;2.70;;;;;;;8.09;75.27;100498.88;5115990;28;20115;-64
2021/10/27 15:59:08;;;;;;;6.80;2.63;;;;;;;8.13;74.90;100516.19;5116203;28;20015;-67
2021/10/27 16:01:34;;;;;;;6.37;3.40;;;;;;;8.07;75.40;100499.03;5115924;28;20035;-67
2021/10/27 16:03:59;;;;;;;10.77;3.53;;;;;;;8.06;74.99;100497.38;5116442;28;20374;-70
2021/10/27 16:06:27;;;;;;;8.50;4.00;;;;;;;8.01;75.55;100501.47;5116638;28;20023;-66
2021/10/27 16:08:58;;;;;;;3.73;2.97;;;;;;;7.94;75.37;100487.16;5098850;28;20051;-66
2021/10/27 16:11:23;;;;;;;9.70;4.50;;;;;;;8.05;75.52;100494.88;5098408;28;20040;-66
2021/10/27 16:13:50;;;;;;;4.57;3.17;;;;;;;7.94;75.04;100481.88;5099278;28;20084;-71
2021/10/27 16:16:17;;;;;;;6.70;2.80;;;;;;;8.06;75.32;100485.94;5099694;28;20497;-73
2021/10/27 16:18:43;;;;;;;6.20;3.53;;;;;;;7.99;75.41;100477.75;5117338;28;20027;-73
2021/10/27 16:21:10;;;;;;;9.67;4.30;;;;;;;7.93;75.30;100465.13;5116509;28;20055;-70
2021/10/27 16:23:36;;;;;;;6.87;3.40;;;;;;;8.03;75.19;100472.97;5115765;28;20134;-66
2021/10/27 16:26:03;;;;;;;8.23;5.47;;;;;;;8.13;75.64;100487.00;5097493;28;20118;-66
2021/10/27 16:28:29;;;;;;;6.83;4.07;;;;;;;8.08;74.94;100490.09;5115571;28;20039;-68
2021/10/27 16:30:55;;;;;;;8.07;3.40;;;;;;;8.02;75.68;100471.31;5115361;28;20513;-66
2021/10/27 16:33:22;;;;;;;4.80;3.87;;;;;;;8.04;75.57;100470.16;5115591;28;20028;-66
2021/10/27 16:35:51;;;;;;;7.00;3.37;;;;;;;7.94;74.92;100452.69;5114895;28;20421;-69
2021/10/27 16:38:17;;;;;;;8.67;3.23;;;;;;;8.05;75.49;100471.00;5115264;28;20034;-66
2021/10/27 16:40:42;;;;;;;7.47;2.80;;;;;;;8.07;75.62;100467.22;5115295;28;20024;-64
2021/10/27 16:43:08;;;;;;;7.20;3.60;;;;;;;8.06;74.85;100462.06;5115267;28;20501;-68
2021/10/27 16:45:34;;;;;;;8.40;2.60;;;;;;;8.04;74.69;100461.38;5114973;28;20027;-67
2021/10/27 16:48:01;;;;;;;5.10;3.60;;;;;;;8.08;75.35;100457.44;5114857;28;20030;-64